Time;durP1;ratioP1;P1;durP2;ratioP2;P2;SDS_P1;SDS_P2;PMS_P1;PMS_P2;Temp;Humidity;BMP_temperature;BMP_pressure;BME280_temperature;BME280_humidity;BME280_pressure;Samples;Min_cycle;Max_cycle;Signal;HPM_P1;HPM_P2
2024/02/12 00:01:06;;;;;;;2.10;1.20;;;;;;;7.23;100.00;96050.56;1223992;75;2922866;-63
2024/02/12 00:03:41;;;;;;;1.20;0.90;;;;;;;7.20;100.00;96048.84;1223704;75;2920446;-64
2024/02/12 00:06:14;;;;;;;1.55;1.20;;;;;;;7.19;100.00;96048.09;1224108;75;2917259;-66
2024/02/12 00:08:47;;;;;;;1.75;1.15;;;;;;;7.13;100.00;96050.06;1224199;75;2925961;-64
2024/02/12 00:11:21;;;;;;;1.70;1.50;;;;;;;7.10;100.00;96048.31;1222559;75;2928097;-65
2024/02/12 00:13:56;;;;;;;3.40;1.40;;;;;;;7.13;100.00;96050.06;1224403;75;2921972;-64
2024/02/12 00:16:29;;;;;;;1.85;1.10;;;;;;;7.11;100.00;96049.06;1223741;75;2920376;-63
2024/02/12 00:19:02;;;;;;;2.65;1.55;;;;;;;7.09;100.00;96052.25;1224384;75;2923943;-64
2024/02/12 00:21:36;;;;;;;2.10;1.50;;;;;;;7.07;100.00;96054.75;1224056;75;2919508;-62
2024/02/12 00:24:10;;;;;;;2.05;1.40;;;;;;;7.03;100.00;96065.13;1223944;75;2923898;-64
2024/02/12 00:26:43;;;;;;;1.55;1.15;;;;;;;7.04;100.00;96063.88;1224373;75;2949917;-64
2024/02/12 00:29:19;;;;;;;1.85;1.30;;;;;;;7.02;100.00;96066.34;1224243;75;2921818;-63
2024/02/12 00:31:52;;;;;;;1.55;1.25;;;;;;;7.01;100.00;96065.59;1224831;75;2919781;-65
2024/02/12 00:34:25;;;;;;;1.30;1.10;;;;;;;6.95;100.00;96069.53;1224556;75;2916551;-64
2024/02/12 00:36:58;;;;;;;1.70;1.15;;;;;;;6.91;100.00;96066.31;1223790;75;2919411;-64
2024/02/12 00:39:32;;;;;;;1.50;1.25;;;;;;;6.88;100.00;96068.06;1224104;75;2927640;-67
2024/02/12 00:42:08;;;;;;;2.05;1.25;;;;;;;6.90;100.00;96070.25;1224717;75;2917849;-63
2024/02/12 00:44:44;;;;;;;1.20;1.10;;;;;;;6.78;100.00;96072.97;1223311;75;2946352;-64
2024/02/12 00:47:17;;;;;;;1.15;0.95;;;;;;;6.79;100.00;96073.69;1222234;75;2921234;-64
2024/02/12 00:49:50;;;;;;;1.00;0.95;;;;;;;6.70;100.00;96077.34;1223304;75;2921195;-63
2024/02/12 00:52:23;;;;;;;1.50;1.15;;;;;;;6.74;100.00;96068.97;1223830;75;2916157;-63
2024/02/12 00:54:56;;;;;;;1.10;1.00;;;;;;;6.69;100.00;96075.88;1225197;75;2920573;-64
2024/02/12 00:57:29;;;;;;;0.85;0.80;;;;;;;6.70;100.00;96074.63;1223996;75;2917100;-63
2024/02/12 01:00:11;;;;;;;0.95;0.80;;;;;;;6.68;100.00;96074.38;1222795;75;2918674;-63
2024/02/12 01:02:45;;;;;;;0.95;0.90;;;;;;;6.67;100.00;96078.34;1224761;75;2914493;-64
2024/02/12 01:05:18;;;;;;;1.00;0.90;;;;;;;6.61;100.00;96083.00;1223966;75;2919727;-64
2024/02/12 01:07:51;;;;;;;1.45;0.90;;;;;;;6.54;100.00;96078.78;1224095;75;2915669;-63
2024/02/12 01:10:24;;;;;;;1.55;1.00;;;;;;;6.59;100.00;96085.47;1223682;75;2914192;-68
2024/02/12 01:12:58;;;;;;;0.80;0.70;;;;;;;6.52;100.00;96083.22;1224169;75;2914692;-65
2024/02/12 01:15:34;;;;;;;1.10;0.95;;;;;;;6.53;100.00;96088.16;1224454;75;2921979;-64
2024/02/12 01:18:07;;;;;;;1.70;0.90;;;;;;;6.51;100.00;96092.59;1224681;75;2925735;-64
2024/02/12 01:20:40;;;;;;;1.00;0.90;;;;;;;6.43;100.00;96094.28;1223902;75;2919407;-64
2024/02/12 01:23:15;;;;;;;1.10;0.95;;;;;;;6.43;100.00;96088.84;1224882;75;2915840;-65
2024/02/12 01:25:51;;;;;;;1.05;0.95;;;;;;;6.42;100.00;96095.50;1223697;75;2917030;-65
2024/02/12 01:28:25;;;;;;;1.00;0.90;;;;;;;6.42;100.00;96098.97;1225025;75;2922308;-64
2024/02/12 01:31:00;;;;;;;0.85;0.80;;;;;;;6.37;100.00;96094.25;1224575;75;2917467;-64
2024/02/12 01:33:33;;;;;;;1.80;1.30;;;;;;;6.09;100.00;96094.81;1224390;75;2924456;-64
2024/02/12 01:36:07;;;;;;;0.80;0.80;;;;;;;6.19;100.00;96101.56;1224858;75;2911503;-63
2024/02/12 01:38:40;;;;;;;1.15;1.00;;;;;;;6.28;100.00;96099.91;1222612;75;2926219;-64
2024/02/12 01:41:16;;;;;;;1.10;0.90;;;;;;;6.27;100.00;96098.38;1224281;75;2918074;-64
2024/02/12 01:43:50;;;;;;;0.95;0.85;;;;;;;6.17;100.00;96095.13;1223877;75;2921105;-62
2024/02/12 01:46:27;;;;;;;1.15;0.90;;;;;;;6.13;100.00;96103.50;1224144;75;2915254;-65
2024/02/12 01:49:01;;;;;;;1.30;0.80;;;;;;;6.06;100.00;96103.19;1224068;75;2923047;-64
2024/02/12 01:51:34;;;;;;;1.30;0.90;;;;;;;6.12;100.00;96103.97;1224477;75;2916588;-63
2024/02/12 01:54:07;;;;;;;0.85;0.80;;;;;;;6.14;100.00;96112.41;1224646;75;2918307;-62
2024/02/12 01:56:41;;;;;;;1.45;0.85;;;;;;;6.18;100.00;96107.47;1223413;75;2918017;-63
2024/02/12 01:59:17;;;;;;;0.95;0.80;;;;;;;6.17;100.00;96112.16;1224097;75;2922835;-65
2024/02/12 02:01:53;;;;;;;1.35;0.90;;;;;;;6.13;100.00;96110.88;1223332;75;2921528;-64
2024/02/12 02:04:26;;;;;;;0.70;0.70;;;;;;;6.15;100.00;96113.88;1224696;75;2916516;-65
2024/02/12 02:06:59;;;;;;;1.40;1.00;;;;;;;6.18;100.00;96119.09;1224238;75;2918053;-64
2024/02/12 02:09:32;;;;;;;1.25;1.05;;;;;;;5.98;100.00;96117.19;1225313;75;2915335;-64
2024/02/12 02:12:05;;;;;;;3.30;1.05;;;;;;;6.16;100.00;96112.66;1225580;75;2912173;-63
2024/02/12 02:14:38;;;;;;;0.90;0.90;;;;;;;6.20;100.00;96113.16;1223867;75;2923543;-63
2024/02/12 02:17:14;;;;;;;1.05;0.90;;;;;;;6.22;100.00;96118.13;1223504;75;2919504;-65
2024/02/12 02:19:48;;;;;;;1.20;1.10;;;;;;;6.24;100.00;96118.38;1224798;75;2919960;-66
2024/02/12 02:22:21;;;;;;;1.20;0.85;;;;;;;6.23;100.00;96119.59;1224370;75;2915616;-64
2024/02/12 02:24:57;;;;;;;1.25;1.00;;;;;;;6.18;100.00;96126.47;1224539;75;2922475;-64
2024/02/12 02:27:30;;;;;;;1.65;1.20;;;;;;;6.16;100.00;96131.69;1223963;75;2930992;-65
2024/02/12 02:30:07;;;;;;;1.50;1.20;;;;;;;6.23;100.00;96125.81;1224437;75;2916006;-65
2024/02/12 02:32:40;;;;;;;1.50;0.90;;;;;;;6.26;100.00;96124.09;1223492;75;2921970;-64
2024/02/12 02:35:14;;;;;;;1.55;1.20;;;;;;;6.25;100.00;96136.16;1224211;75;2920228;-64
2024/02/12 02:37:47;;;;;;;1.25;0.90;;;;;;;6.18;100.00;96123.75;1223750;75;2931454;-65
2024/02/12 02:40:22;;;;;;;1.75;1.20;;;;;;;6.13;100.00;96127.19;1222945;75;2923095;-67
2024/02/12 02:42:56;;;;;;;1.35;1.00;;;;;;;6.00;100.00;96129.56;1224139;75;2922997;-64
2024/02/12 02:45:29;;;;;;;1.85;1.60;;;;;;;5.59;100.00;96126.97;1223909;75;2925500;-64
2024/02/12 02:48:02;;;;;;;2.70;2.30;;;;;;;5.72;100.00;96133.53;1223443;75;2918864;-63
2024/02/12 02:50:36;;;;;;;2.00;1.60;;;;;;;5.97;100.00;96134.75;1221928;75;2951543;-65
2024/02/12 02:53:09;;;;;;;1.95;1.50;;;;;;;6.05;100.00;96126.88;1222984;75;2925876;-63
2024/02/12 02:55:45;;;;;;;2.40;1.50;;;;;;;6.11;100.00;96137.78;1223896;75;2918763;-64
2024/02/12 02:58:20;;;;;;;1.75;1.40;;;;;;;6.06;100.00;96141.97;1223740;75;2918293;-62
2024/02/12 03:00:53;;;;;;;1.60;1.40;;;;;;;5.88;100.00;96139.56;1223193;75;2922886;-64
2024/02/12 03:03:26;;;;;;;2.65;2.00;;;;;;;5.80;100.00;96141.97;1224347;75;2927908;-64
2024/02/12 03:05:58;;;;;;;1.75;1.60;;;;;;;6.07;100.00;96140.00;1223547;75;2923500;-66
2024/02/12 03:08:34;;;;;;;1.80;1.40;;;;;;;6.10;100.00;96144.47;1223888;75;2922817;-62
2024/02/12 03:11:09;;;;;;;2.70;2.50;;;;;;;5.79;100.00;96142.44;1223908;75;2914325;-65
2024/02/12 03:13:42;;;;;;;3.00;2.15;;;;;;;5.87;100.00;96152.41;1223760;75;2915025;-64
2024/02/12 03:16:18;;;;;;;2.55;2.05;;;;;;;6.06;100.00;96154.78;1224279;75;2925591;-62
2024/02/12 03:18:52;;;;;;;2.30;1.70;;;;;;;6.02;100.00;96152.31;1223590;75;2924020;-64
2024/02/12 03:21:26;;;;;;;2.20;2.00;;;;;;;6.03;100.00;96151.06;1223488;75;2921932;-63
2024/02/12 03:23:59;;;;;;;1.60;1.40;;;;;;;6.13;100.00;96146.22;1224111;75;2918895;-65
2024/02/12 03:26:35;;;;;;;1.55;1.15;;;;;;;6.18;100.00;96154.41;1223334;75;2913079;-62
2024/02/12 03:29:08;;;;;;;1.55;1.20;;;;;;;6.17;100.00;96158.34;1223555;75;2928130;-66
2024/02/12 03:31:43;;;;;;;1.65;1.50;;;;;;;6.10;100.00;96163.47;1223179;75;2931288;-62
2024/02/12 03:34:16;;;;;;;2.30;1.90;;;;;;;6.18;100.00;96165.28;1223852;67;2925206;-65
2024/02/12 03:36:49;;;;;;;3.15;2.05;;;;;;;6.22;100.00;96167.78;1224097;75;2925652;-62
2024/02/12 03:39:24;;;;;;;3.15;1.95;;;;;;;6.19;100.00;96171.47;1224069;75;2921048;-65
2024/02/12 03:41:59;;;;;;;2.75;2.25;;;;;;;6.21;100.00;96166.28;1224640;75;2922289;-64
2024/02/12 03:44:34;;;;;;;2.60;2.05;;;;;;;6.29;100.00;96169.31;1224257;75;2918993;-64
2024/02/12 03:47:08;;;;;;;2.70;1.90;;;;;;;6.19;100.00;96174.19;1224775;75;2916216;-64
2024/02/12 04:00:57;;;;;;;2.65;2.05;;;;;;;6.17;100.00;96192.94;1223685;75;2918221;-65
2024/02/12 04:03:30;;;;;;;1.40;1.30;;;;;;;6.25;100.00;96187.78;1221736;75;2931085;-63
2024/02/12 04:06:06;;;;;;;2.00;1.45;;;;;;;6.28;100.00;96190.31;1224591;75;2923924;-65
2024/02/12 04:08:41;;;;;;;2.25;1.65;;;;;;;6.33;100.00;96192.31;1224581;75;2924265;-64
2024/02/12 04:11:15;;;;;;;1.40;1.20;;;;;;;6.28;100.00;96186.84;1222261;75;2922668;-66
2024/02/12 04:13:52;;;;;;;2.65;1.80;;;;;;;6.05;100.00;96194.06;1223512;75;2928112;-65
2024/02/12 04:16:26;;;;;;;3.55;2.05;;;;;;;6.15;100.00;96196.13;1222994;75;2917709;-65
2024/02/12 04:18:59;;;;;;;5.55;1.90;;;;;;;6.12;100.00;96204.50;1223791;75;2923202;-63
2024/02/12 04:21:32;;;;;;;3.15;2.05;;;;;;;6.03;100.00;96215.53;1223652;75;2936421;-64
2024/02/12 04:24:06;;;;;;;3.25;1.85;;;;;;;6.17;100.00;96206.50;1223152;75;2952727;-64
2024/02/12 04:26:39;;;;;;;1.85;1.50;;;;;;;6.32;100.00;96223.44;1222386;75;2957960;-64
2024/02/12 04:29:15;;;;;;;1.90;1.50;;;;;;;6.40;100.00;96221.03;1223166;75;2921544;-67
2024/02/12 04:31:48;;;;;;;2.20;1.60;;;;;;;6.28;100.00;96222.19;1223011;75;2937392;-64
2024/02/12 04:34:20;;;;;;;1.35;1.20;;;;;;;6.41;100.00;96222.53;1222808;75;2921417;-64
2024/02/12 04:36:55;;;;;;;2.05;1.65;;;;;;;6.41;100.00;96227.97;1223482;75;2926083;-64
2024/02/12 04:39:28;;;;;;;3.15;2.45;;;;;;;6.12;100.00;96228.94;1223234;75;2925359;-65
2024/02/12 04:42:00;;;;;;;3.75;2.20;;;;;;;6.32;100.00;96228.13;1222962;75;2931013;-65
2024/02/12 04:44:36;;;;;;;2.10;1.70;;;;;;;6.30;100.00;96233.28;1222870;75;2925461;-67
2024/02/12 04:47:09;;;;;;;2.95;2.25;;;;;;;6.11;100.00;96224.72;1223122;75;2917994;-64
2024/02/12 04:49:43;;;;;;;5.90;4.45;;;;;;;5.98;100.00;96220.41;1223974;75;2921381;-63
2024/02/12 04:52:16;;;;;;;6.30;4.10;;;;;;;6.28;100.00;96230.34;1223767;75;2919637;-66
2024/02/12 04:54:49;;;;;;;4.90;3.70;;;;;;;6.45;100.00;96230.47;1224162;75;2866440;-65
2024/02/12 04:57:22;;;;;;;4.30;2.85;;;;;;;6.48;100.00;96226.78;1223800;75;2915661;-66
2024/02/12 04:59:57;;;;;;;3.55;2.65;;;;;;;6.57;100.00;96230.06;1223117;75;2931499;-64
2024/02/12 05:02:31;;;;;;;3.50;2.40;;;;;;;6.55;100.00;96229.06;1221540;75;2935153;-64
2024/02/12 05:05:05;;;;;;;4.45;3.20;;;;;;;6.29;100.00;96226.38;1223240;75;2931727;-63
2024/02/12 05:07:37;;;;;;;7.70;5.35;;;;;;;6.14;100.00;96237.38;1222298;75;2926603;-64
2024/02/12 05:10:12;;;;;;;8.10;5.95;;;;;;;6.27;100.00;96237.72;1223445;75;2921297;-64
2024/02/12 05:12:46;;;;;;;8.10;5.65;;;;;;;6.27;100.00;96231.53;1223625;75;2927988;-65
2024/02/12 05:15:21;;;;;;;6.55;4.30;;;;;;;6.39;100.00;96236.59;1222927;75;2919213;-63
2024/02/12 05:18:06;;;;;;;4.60;3.40;;;;;;;6.57;100.00;96232.78;1222980;75;2930173;-63
2024/02/12 05:23:26;;;;;;;7.60;5.20;;;;;;;6.35;100.00;96244.22;1222745;75;2928271;-62
2024/02/12 05:25:59;;;;;;;7.10;4.75;;;;;;;6.47;100.00;96241.59;1222403;75;2925761;-63
2024/02/12 05:28:32;;;;;;;9.25;6.10;;;;;;;6.38;100.00;96254.13;1222000;75;2935015;-64
2024/02/12 05:31:08;;;;;;;13.30;9.30;;;;;;;6.24;100.00;96243.38;1222110;75;2931235;-64
2024/02/12 05:33:41;;;;;;;9.50;6.45;;;;;;;6.22;100.00;96246.56;1222101;75;2932085;-63
2024/02/12 05:36:17;;;;;;;8.60;5.85;;;;;;;6.21;100.00;96244.34;1222788;75;2925441;-64
2024/02/12 05:38:50;;;;;;;7.40;5.25;;;;;;;6.19;100.00;96250.25;1222233;75;2927285;-64
2024/02/12 05:41:23;;;;;;;6.00;4.60;;;;;;;6.16;100.00;96249.25;1221677;75;2923554;-63
2024/02/12 05:43:56;;;;;;;5.05;4.10;;;;;;;6.35;100.00;96259.75;1222160;75;2929960;-65
2024/02/12 05:46:31;;;;;;;6.40;3.15;;;;;;;6.37;100.00;96252.66;1221959;75;2924859;-64
2024/02/12 05:49:06;;;;;;;6.85;4.30;;;;;;;6.12;100.00;96259.56;1221197;75;2927020;-63
2024/02/12 05:51:39;;;;;;;6.40;4.40;;;;;;;6.32;100.00;96266.19;1223570;75;2940609;-63
2024/02/12 05:54:12;;;;;;;5.50;3.85;;;;;;;6.19;100.00;96259.16;1223413;75;2923214;-64
2024/02/12 05:56:45;;;;;;;7.05;5.95;;;;;;;6.08;100.00;96263.72;1223708;75;2922650;-63
2024/02/12 05:59:18;;;;;;;7.05;4.90;;;;;;;6.07;100.00;96268.41;1224567;75;2926526;-64
2024/02/12 06:01:53;;;;;;;6.55;4.35;;;;;;;6.17;100.00;96269.75;1224410;75;2926620;-63
2024/02/12 06:04:26;;;;;;;5.85;4.35;;;;;;;6.32;100.00;96271.59;1223224;75;2923409;-63
2024/02/12 06:06:59;;;;;;;7.35;4.15;;;;;;;6.34;100.00;96280.03;1222069;75;2927632;-62
2024/02/12 06:09:32;;;;;;;9.10;4.30;;;;;;;6.40;100.00;96280.84;1223475;75;2917511;-64
2024/02/12 06:12:07;;;;;;;4.55;3.15;;;;;;;6.61;100.00;96284.97;1222883;75;2879764;-63
2024/02/12 06:14:41;;;;;;;10.05;7.50;;;;;;;6.45;100.00;96282.13;1222025;75;2920588;-63
2024/02/12 06:17:19;;;;;;;8.15;6.25;;;;;;;6.58;100.00;96288.63;1223042;75;2919099;-63
2024/02/12 06:19:52;;;;;;;10.90;8.20;;;;;;;6.64;100.00;96287.94;1224024;75;2942135;-65
2024/02/12 06:22:26;;;;;;;7.80;6.00;;;;;;;6.64;100.00;96291.41;1222770;75;2959526;-63
2024/02/12 06:25:03;;;;;;;6.55;4.75;;;;;;;6.64;100.00;96288.69;1223450;75;2932255;-63
2024/02/12 06:27:36;;;;;;;5.15;4.15;;;;;;;6.57;100.00;96305.44;1223294;75;2924685;-64
2024/02/12 06:30:11;;;;;;;3.95;3.15;;;;;;;6.81;100.00;96316.75;1223525;75;2922767;-64
2024/02/12 06:32:47;;;;;;;7.10;3.65;;;;;;;6.52;100.00;96308.88;1223392;75;2922044;-65
2024/02/12 06:35:20;;;;;;;4.80;3.35;;;;;;;6.67;100.00;96312.19;1223404;75;2919796;-66
2024/02/12 06:37:53;;;;;;;3.95;2.85;;;;;;;6.76;100.00;96311.28;1222972;75;2926348;-63
2024/02/12 06:40:26;;;;;;;5.95;4.55;;;;;;;6.44;100.00;96308.53;1222962;75;2926759;-61
2024/02/12 06:43:02;;;;;;;7.40;4.95;;;;;;;6.43;100.00;96317.94;1223105;67;2925383;-64
2024/02/12 06:45:35;;;;;;;6.30;4.70;;;;;;;6.43;100.00;96331.53;1222871;75;2926830;-64
2024/02/12 06:48:12;;;;;;;6.40;4.55;;;;;;;6.61;100.00;96330.44;1222293;75;2942793;-64
2024/02/12 06:50:46;;;;;;;6.85;5.00;;;;;;;6.48;100.00;96328.09;1222511;75;2923225;-63
2024/02/12 06:53:20;;;;;;;7.10;4.60;;;;;;;6.44;100.00;96332.25;1222761;75;2920442;-63
2024/02/12 06:55:52;;;;;;;7.75;5.10;;;;;;;6.41;100.00;96339.41;1223861;75;2922134;-63
2024/02/12 06:58:26;;;;;;;8.50;5.90;;;;;;;6.35;100.00;96338.59;1223066;75;2923672;-63
2024/02/12 07:00:59;;;;;;;6.00;4.40;;;;;;;6.60;100.00;96346.00;1222926;75;2928932;-63
2024/02/12 07:03:35;;;;;;;4.20;3.30;;;;;;;6.86;100.00;96347.97;1223434;75;2925873;-63
2024/02/12 07:06:10;;;;;;;5.85;4.90;;;;;;;6.44;100.00;96351.28;1223501;75;2930219;-63
2024/02/12 07:08:44;;;;;;;7.60;5.00;;;;;;;6.59;100.00;96347.25;1223809;75;2923558;-61
2024/02/12 07:11:17;;;;;;;9.00;6.60;;;;;;;6.51;100.00;96348.13;1222904;75;2936761;-64
2024/02/12 07:13:52;;;;;;;6.60;5.25;;;;;;;6.67;100.00;96355.72;1223533;75;2927935;-64
2024/02/12 07:16:29;;;;;;;6.40;4.90;;;;;;;6.63;100.00;96351.72;1223260;75;2928628;-63
2024/02/12 07:19:05;;;;;;;9.10;6.00;;;;;;;6.55;100.00;96363.00;1223468;75;2920866;-67
2024/02/12 07:21:39;;;;;;;12.75;6.60;;;;;;;6.52;100.00;96371.41;1212705;75;2927625;-65
2024/02/12 07:24:14;;;;;;;9.60;6.60;;;;;;;6.28;100.00;96356.09;1190758;75;4327144;-64
2024/02/12 07:26:48;;;;;;;12.00;7.10;;;;;;;6.26;100.00;96363.97;1221056;75;2928972;-65
2024/02/12 07:29:21;;;;;;;13.15;7.15;;;;;;;6.42;100.00;96361.88;1208576;75;3208841;-64
2024/02/12 07:31:54;;;;;;;11.05;7.10;;;;;;;6.26;100.00;96358.53;1223671;75;2924936;-66
2024/02/12 07:34:30;;;;;;;12.75;8.30;;;;;;;6.11;100.00;96360.56;1222839;75;2928015;-64
2024/02/12 07:37:02;;;;;;;12.85;7.85;;;;;;;6.15;100.00;96361.13;1223782;75;2947510;-67
2024/02/12 07:39:38;;;;;;;11.50;8.05;;;;;;;6.10;100.00;96365.25;1223347;75;2922316;-65
2024/02/12 07:42:12;;;;;;;13.65;9.55;;;;;;;6.25;100.00;96369.88;1222599;75;2941676;-65
2024/02/12 07:44:44;;;;;;;20.05;9.25;;;;;;;6.30;100.00;96377.34;1223207;75;2921199;-66
2024/02/12 07:47:17;;;;;;;19.35;10.65;;;;;;;6.24;100.00;96379.25;1224395;75;2923031;-64
2024/02/12 07:49:53;;;;;;;16.85;10.95;;;;;;;6.14;100.00;96378.66;1223710;75;2924581;-67
2024/02/12 07:52:26;;;;;;;16.85;11.30;;;;;;;6.16;100.00;96381.66;1223947;75;2918263;-65
2024/02/12 07:54:59;;;;;;;10.75;8.15;;;;;;;6.15;100.00;96383.59;1223864;75;2927097;-64
2024/02/12 07:57:32;;;;;;;10.10;8.20;;;;;;;6.10;100.00;96383.53;1224125;75;2921155;-64
2024/02/12 08:00:07;;;;;;;10.60;7.30;;;;;;;6.31;100.00;96384.28;1223949;75;2932722;-66
2024/02/12 08:02:40;;;;;;;10.20;7.80;;;;;;;6.27;100.00;96389.91;1222753;75;2927456;-63
2024/02/12 08:05:17;;;;;;;12.85;9.00;;;;;;;6.21;100.00;96388.38;1222991;75;2935980;-65
2024/02/12 08:07:50;;;;;;;10.20;7.55;;;;;;;6.23;100.00;96380.47;1223034;75;2922400;-66
2024/02/12 08:10:23;;;;;;;11.20;8.85;;;;;;;6.24;100.00;96388.16;1224231;75;2924279;-63
2024/02/12 08:12:56;;;;;;;9.95;8.10;;;;;;;6.36;100.00;96389.03;1223885;75;2923270;-66
2024/02/12 08:15:29;;;;;;;11.50;8.05;;;;;;;6.39;100.00;96396.94;1222541;75;2938724;-66
2024/02/12 08:18:03;;;;;;;12.40;7.70;;;;;;;6.45;100.00;96391.59;1220679;75;2982688;-66
2024/02/12 08:20:39;;;;;;;11.70;8.90;;;;;;;6.40;100.00;96397.72;1224684;75;2918793;-66
2024/02/12 08:23:12;;;;;;;10.45;7.50;;;;;;;6.54;100.00;96393.41;1221294;75;2933216;-67
2024/02/12 08:25:45;;;;;;;10.60;8.05;;;;;;;6.55;100.00;96395.66;1223214;75;2922145;-66
2024/02/12 08:28:18;;;;;;;10.20;7.60;;;;;;;6.67;100.00;96403.91;1223220;75;2927514;-65
2024/02/12 08:30:51;;;;;;;10.30;7.60;;;;;;;6.64;100.00;96396.69;1222937;75;2927573;-65
2024/02/12 08:33:26;;;;;;;11.80;8.15;;;;;;;6.66;100.00;96402.41;1174413;75;6652989;-66
2024/02/12 08:36:02;;;;;;;13.10;7.50;;;;;;;6.71;100.00;96394.31;1223279;75;2922235;-65
2024/02/12 08:38:35;;;;;;;9.60;6.30;;;;;;;6.87;100.00;96401.13;1223392;75;2930990;-68
2024/02/12 08:41:08;;;;;;;10.60;7.65;;;;;;;6.96;100.00;96394.78;1222357;75;2924616;-66
2024/02/12 08:43:42;;;;;;;10.25;6.35;;;;;;;6.71;100.00;96394.31;1222548;75;2924662;-65
2024/02/12 08:46:15;;;;;;;7.80;6.10;;;;;;;7.03;100.00;96397.81;1223542;75;2923997;-64
2024/02/12 08:48:48;;;;;;;7.00;5.90;;;;;;;7.00;100.00;96398.03;1223475;75;2927323;-64
2024/02/12 08:51:23;;;;;;;8.20;6.05;;;;;;;6.93;100.00;96399.22;1223178;75;2926598;-67
2024/02/12 08:53:57;;;;;;;11.10;7.15;;;;;;;6.95;100.00;96406.88;1224119;75;2932123;-67
2024/02/12 08:56:31;;;;;;;9.15;6.25;;;;;;;7.27;100.00;96407.63;1223353;75;2927667;-63
2024/02/12 08:59:06;;;;;;;7.95;5.85;;;;;;;7.18;100.00;96414.00;1223921;75;2930995;-64
2024/02/12 09:01:39;;;;;;;9.70;6.95;;;;;;;6.97;100.00;96407.88;1222509;75;2929229;-63
2024/02/12 09:04:12;;;;;;;7.55;6.20;;;;;;;7.33;100.00;96413.84;1224340;75;2924918;-64
2024/02/12 09:06:47;;;;;;;5.85;4.80;;;;;;;7.67;100.00;96428.47;1223979;75;2923247;-65
2024/02/12 09:09:20;;;;;;;7.75;5.65;;;;;;;7.36;100.00;96423.81;1221549;75;2925418;-64
2024/02/12 09:11:53;;;;;;;8.20;6.35;;;;;;;7.50;100.00;96422.16;1223268;75;2927607;-64
2024/02/12 09:14:26;;;;;;;7.30;4.45;;;;;;;7.74;100.00;96427.25;1223600;75;2926820;-62
2024/02/12 09:16:59;;;;;;;7.20;4.95;;;;;;;7.77;100.00;96428.25;1222950;75;2932583;-64
2024/02/12 09:19:32;;;;;;;4.65;3.80;;;;;;;8.06;100.00;96429.91;1223416;75;2932209;-65
2024/02/12 09:22:09;;;;;;;7.35;5.25;;;;;;;7.95;100.00;96435.28;1223818;75;2919971;-64
2024/02/12 09:24:42;;;;;;;5.30;4.60;;;;;;;8.07;100.00;96432.13;1222792;75;2922857;-65
2024/02/12 09:27:15;;;;;;;6.60;5.35;;;;;;;7.81;100.00;96437.69;1223753;75;2925855;-65
2024/02/12 09:29:48;;;;;;;5.95;4.70;;;;;;;8.06;100.00;96433.38;1222984;75;2924974;-66
2024/02/12 09:32:21;;;;;;;4.65;3.80;;;;;;;8.26;100.00;96431.72;1222683;75;2931552;-64
2024/02/12 09:34:55;;;;;;;8.25;4.60;;;;;;;8.16;100.00;96433.16;1223861;75;2962640;-64
2024/02/12 09:37:32;;;;;;;5.55;4.05;;;;;;;8.41;100.00;96435.03;1223560;75;2932460;-64
2024/02/12 09:40:07;;;;;;;6.85;4.85;;;;;;;8.20;100.00;96436.41;1223854;75;2924760;-64
2024/02/12 09:42:43;;;;;;;5.30;4.25;;;;;;;8.39;100.00;96434.72;1223065;75;2927867;-65
2024/02/12 09:45:18;;;;;;;7.70;6.10;;;;;;;8.09;100.00;96437.09;1224220;75;2924323;-67
2024/02/12 09:47:52;;;;;;;12.60;7.55;;;;;;;7.97;100.00;96433.56;1222586;75;2928406;-65
2024/02/12 09:50:27;;;;;;;9.45;6.65;;;;;;;8.27;100.00;96435.94;1223534;75;2926148;-64
2024/02/12 09:53:03;;;;;;;8.50;7.15;;;;;;;8.13;100.00;96434.91;1223474;75;2929134;-67
2024/02/12 09:55:36;;;;;;;12.00;8.20;;;;;;;7.96;100.00;96440.28;1224038;75;2919140;-64
2024/02/12 09:58:09;;;;;;;9.70;7.85;;;;;;;8.14;100.00;96441.81;1223878;75;2921103;-64
2024/02/12 10:00:42;;;;;;;9.55;7.85;;;;;;;7.87;100.00;96443.94;1221892;75;2929593;-66
2024/02/12 10:03:15;;;;;;;13.05;9.35;;;;;;;7.53;100.00;96442.97;1223050;75;2921862;-64
2024/02/12 10:05:48;;;;;;;11.50;8.40;;;;;;;7.79;100.00;96445.63;1223348;75;2925754;-66
2024/02/12 10:08:28;;;;;;;10.40;8.15;;;;;;;7.86;100.00;96450.63;1222671;75;2930563;-65
2024/02/12 10:11:02;;;;;;;11.65;9.15;;;;;;;7.74;100.00;96454.47;1222966;75;2923722;-65
2024/02/12 10:13:35;;;;;;;11.60;9.05;;;;;;;7.87;100.00;96446.66;1223896;75;2930566;-65
2024/02/12 10:16:10;;;;;;;11.25;8.75;;;;;;;8.10;100.00;96446.75;1223111;75;2924729;-65
2024/02/12 10:18:43;;;;;;;12.20;8.70;;;;;;;7.81;100.00;96447.84;1223485;75;2929519;-66
2024/02/12 10:21:17;;;;;;;12.10;9.75;;;;;;;7.77;100.00;96450.81;1221023;75;2923568;-65
2024/02/12 10:23:53;;;;;;;11.80;8.60;;;;;;;8.00;100.00;96443.50;1223201;75;2924141;-65
2024/02/12 10:26:26;;;;;;;10.50;8.50;;;;;;;8.17;100.00;96438.13;1222569;75;2923255;-67
2024/02/12 10:29:00;;;;;;;15.70;11.10;;;;;;;8.11;100.00;96435.38;1223662;75;2925590;-64
2024/02/12 10:31:33;;;;;;;18.65;14.25;;;;;;;8.18;100.00;96438.84;1223938;75;2920668;-65
2024/02/12 10:34:11;;;;;;;15.65;10.30;;;;;;;8.22;100.00;96434.66;1222116;75;2925038;-64
2024/02/12 10:36:49;;;;;;;19.20;10.90;;;;;;;8.20;100.00;96434.44;1224261;75;2924638;-64
2024/02/12 10:39:28;;;;;;;13.90;8.20;;;;;;;8.03;100.00;96430.88;1224109;75;2920422;-65
2024/02/12 10:42:03;;;;;;;;;;;;;;;8.04;100.00;96437.81;1223743;75;2919177;-63
2024/02/12 10:44:36;;;;;;;11.55;8.00;;;;;;;7.89;100.00;96438.00;1223584;75;2929251;-63
2024/02/12 10:47:10;;;;;;;8.55;7.15;;;;;;;8.42;100.00;96441.22;1223015;75;2921687;-63
2024/02/12 10:49:43;;;;;;;10.35;7.85;;;;;;;8.23;100.00;96436.19;1223898;67;2933345;-65
2024/02/12 10:52:18;;;;;;;10.95;7.90;;;;;;;8.14;100.00;96433.66;1221719;75;2929825;-65
2024/02/12 10:54:54;;;;;;;10.95;8.10;;;;;;;8.21;100.00;96433.19;1223172;75;2932638;-65
2024/02/12 10:57:28;;;;;;;10.40;8.30;;;;;;;8.33;100.00;96429.25;1223751;75;2929018;-65
2024/02/12 11:00:11;;;;;;;10.60;7.15;;;;;;;8.52;100.00;96426.13;1221391;75;2937377;-65
2024/02/12 11:02:45;;;;;;;9.45;6.55;;;;;;;8.79;100.00;96421.97;1224124;75;2917605;-66
2024/02/12 11:05:21;;;;;;;9.30;7.70;;;;;;;8.56;100.00;96425.88;1223507;75;2928030;-67
2024/02/12 11:08:08;;;;;;;10.15;7.50;;;;;;;8.74;100.00;96420.00;1224295;75;2923193;-65
2024/02/12 11:10:43;;;;;;;10.30;7.50;;;;;;;8.69;100.00;96426.19;1223695;75;2929019;-64
2024/02/12 11:13:19;;;;;;;8.45;6.80;;;;;;;8.94;100.00;96417.03;1223827;75;2919810;-64
2024/02/12 11:15:53;;;;;;;8.15;6.35;;;;;;;9.06;100.00;96411.59;1223838;75;2926798;-64
2024/02/12 11:18:28;;;;;;;7.85;6.45;;;;;;;9.32;100.00;96414.06;1222998;75;2918473;-65
2024/02/12 11:21:02;;;;;;;10.30;7.35;;;;;;;9.06;100.00;96423.25;1222338;75;2924362;-66
2024/02/12 11:23:35;;;;;;;8.15;6.65;;;;;;;8.89;100.00;96417.78;1224587;75;2923206;-67
2024/02/12 11:26:11;;;;;;;8.70;6.95;;;;;;;9.07;100.00;96427.47;1223184;75;2923599;-65
2024/02/12 11:28:49;;;;;;;8.70;6.75;;;;;;;9.03;100.00;96424.25;1224052;75;2920005;-64
2024/02/12 11:31:25;;;;;;;7.20;6.10;;;;;;;9.26;100.00;96427.75;1223713;75;2931377;-65
2024/02/12 11:33:58;;;;;;;8.10;6.65;;;;;;;9.03;100.00;96421.50;1219867;75;2962631;-65
2024/02/12 11:36:31;;;;;;;8.20;6.50;;;;;;;9.03;100.00;96421.50;1223613;75;2925279;-65
2024/02/12 11:39:04;;;;;;;9.05;7.25;;;;;;;8.99;100.00;96417.53;1224543;75;2921930;-68
2024/02/12 11:41:41;;;;;;;9.90;7.50;;;;;;;8.89;100.00;96415.03;1223675;75;2923543;-64
2024/02/12 11:44:14;;;;;;;8.95;7.05;;;;;;;8.90;100.00;96424.00;1223727;75;2921574;-64
2024/02/12 11:46:57;;;;;;;8.85;7.20;;;;;;;8.81;100.00;96416.78;1224039;75;2922568;-66
2024/02/12 11:49:30;;;;;;;10.20;7.05;;;;;;;8.89;100.00;96419.75;1223409;75;2931325;-66
2024/02/12 11:52:03;;;;;;;7.90;5.90;;;;;;;9.28;100.00;96417.03;1223708;67;2924991;-65
2024/02/12 11:54:36;;;;;;;6.80;5.00;;;;;;;9.65;100.00;96415.28;1224317;75;2925445;-65
2024/02/12 11:57:12;;;;;;;8.30;5.10;;;;;;;9.73;100.00;96411.53;1223171;75;2921457;-65
2024/02/12 11:59:45;;;;;;;11.25;6.85;;;;;;;9.15;100.00;96412.09;1223782;75;2919451;-66